createdAt,value
2016-02-24T00:00:07.142Z,0
2016-02-24T00:00:19.564Z,0
2016-02-24T00:02:11.069Z,0
2016-02-24T00:02:23.569Z,0
2016-02-24T00:04:15.012Z,0
2016-02-24T00:04:40.309Z,0
2016-02-24T00:06:43.752Z,0
2016-02-24T00:06:56.333Z,0
2016-02-24T00:09:33.947Z,0
2016-02-24T00:10:11.732Z,0
2016-02-24T00:12:14.346Z,0
2016-02-24T00:12:46.112Z,0
2016-02-24T00:13:26.957Z,0
2016-02-24T00:15:29.573Z,0
2016-02-24T00:16:07.840Z,0
2016-02-24T00:16:42.168Z,0
2016-02-24T00:18:44.799Z,0
2016-02-24T00:19:23.130Z,0
2016-02-24T00:21:32.776Z,0
2016-02-24T00:22:42.326Z,0
2016-02-24T00:24:08.051Z,0
2016-02-24T00:25:23.240Z,0
2016-02-24T00:26:32.775Z,0
2016-02-24T00:28:36.014Z,0
2016-02-24T00:29:19.876Z,0
2016-02-24T00:29:48.626Z,0
2016-02-24T00:30:48.614Z,0
2016-02-24T00:31:48.631Z,0
2016-02-24T00:33:01.387Z,0
2016-02-24T00:33:48.762Z,0
2016-02-24T00:35:40.021Z,0
2016-02-24T00:35:55.646Z,0
2016-02-24T00:37:49.590Z,0
2016-02-24T00:38:59.142Z,0
2016-02-24T00:40:39.863Z,0
2016-02-24T00:41:49.413Z,0
2016-02-24T00:43:20.715Z,0
2016-02-24T00:44:35.906Z,0
2016-02-24T00:45:04.846Z,0
2016-02-24T00:46:04.615Z,0
2016-02-24T00:47:10.882Z,0
2016-02-24T00:48:04.635Z,0
2016-02-24T00:49:23.857Z,0
2016-02-24T00:50:17.406Z,0
2016-02-24T00:52:26.505Z,0
2016-02-24T00:52:45.333Z,0
2016-02-24T00:54:41.698Z,0
2016-02-24T00:55:13.451Z,0
2016-02-24T00:55:54.373Z,0
2016-02-24T00:57:07.019Z,0
2016-02-24T00:57:54.316Z,0
2016-02-24T00:59:51.290Z,0
2016-02-24T01:01:00.841Z,0
2016-02-24T01:04:35.538Z,0
2016-02-24T01:05:54.947Z,0
2016-02-24T01:07:10.269Z,0
2016-02-24T01:09:07.524Z,0
2016-02-24T01:10:17.105Z,0
2016-02-24T01:11:48.405Z,0
2016-02-24T01:14:24.272Z,0
2016-02-24T01:14:36.850Z,0
2016-02-24T01:16:28.215Z,0
2016-02-24T01:16:43.840Z,0
2016-02-24T01:19:16.083Z,0
2016-02-24T01:19:50.458Z,0
2016-02-24T01:21:53.056Z,0
2016-02-24T01:22:05.622Z,0
2016-02-24T01:23:05.625Z,0
2016-02-24T01:24:11.909Z,0
2016-02-24T01:25:18.395Z,0
2016-02-24T01:26:18.242Z,0
2016-02-24T01:27:57.014Z,0
2016-02-24T01:28:35.108Z,0
2016-02-24T01:30:38.050Z,0
2016-02-24T01:31:09.849Z,0
2016-02-24T01:32:03.399Z,0
2016-02-24T01:32:50.696Z,0
2016-02-24T01:33:50.652Z,0
2016-02-24T01:34:51.264Z,0
2016-02-24T01:36:03.441Z,0
2016-02-24T01:37:03.646Z,0
2016-02-24T01:38:16.385Z,0
2016-02-24T01:39:09.949Z,0
2016-02-24T01:40:22.061Z,0
2016-02-24T01:41:31.423Z,0
2016-02-24T01:42:31.629Z,0
2016-02-24T01:45:12.528Z,0
2016-02-24T01:45:41.199Z,0
2016-02-24T01:46:41.217Z,0
2016-02-24T01:47:41.251Z,0
2016-02-24T01:48:41.239Z,0
2016-02-24T01:49:54.007Z,0
2016-02-24T01:50:53.994Z,0
2016-02-24T01:52:00.484Z,0
2016-02-24T01:52:41.312Z,0
2016-02-24T01:54:43.943Z,0
2016-02-24T01:54:56.568Z,0
2016-02-24T01:57:05.904Z,0
2016-02-24T01:59:09.362Z,0
2016-02-24T01:59:21.909Z,0
2016-02-24T02:00:21.912Z,0
2016-02-24T02:01:34.664Z,0
2016-02-24T02:02:34.745Z,0
2016-02-24T02:03:41.185Z,0
2016-02-24T02:04:41.188Z,0
2016-02-24T02:05:50.721Z,0
2016-02-24T02:06:25.162Z,0
2016-02-24T02:07:25.087Z,0
2016-02-24T02:09:50.249Z,0
2016-02-24T02:10:29.626Z,0
2016-02-24T02:12:32.241Z,0
2016-02-24T02:12:44.851Z,0
2016-02-24T02:13:44.838Z,0
2016-02-24T02:14:57.592Z,0
2016-02-24T02:15:45.061Z,0
2016-02-24T02:16:44.862Z,0
2016-02-24T02:17:51.145Z,0
2016-02-24T02:18:51.163Z,0
2016-02-24T02:19:44.963Z,0
2016-02-24T02:20:57.671Z,0
2016-02-24T02:21:51.171Z,0
2016-02-24T02:23:41.942Z,0
2016-02-24T02:24:21.742Z,0
2016-02-24T02:25:08.822Z,0
2016-02-24T02:28:31.894Z,0
2016-02-24T02:29:18.959Z,0
2016-02-24T02:30:12.728Z,0
2016-02-24T02:31:25.464Z,0
2016-02-24T02:32:12.748Z,0
2016-02-24T02:33:32.033Z,0
2016-02-24T02:34:25.488Z,0
2016-02-24T02:35:44.084Z,0
2016-02-24T02:36:32.055Z,0
2016-02-24T02:37:38.293Z,0
2016-02-24T02:39:41.610Z,0
2016-02-24T02:40:35.129Z,0
2016-02-24T02:41:44.835Z,0
2016-02-24T02:42:41.431Z,0
2016-02-24T02:45:03.954Z,0
2016-02-24T02:46:03.942Z,0
2016-02-24T02:47:13.476Z,0
2016-02-24T02:48:13.588Z,0
2016-02-24T02:48:42.229Z,0
2016-02-24T02:50:13.640Z,0
2016-02-24T02:50:42.265Z,0
2016-02-24T02:51:42.251Z,0
2016-02-24T02:52:42.271Z,0
2016-02-24T02:53:42.273Z,0
2016-02-24T02:54:48.541Z,0
2016-02-24T02:55:49.982Z,0
2016-02-24T02:56:55.015Z,0
2016-02-24T02:58:08.006Z,0
2016-02-24T02:59:01.336Z,0
2016-02-24T03:01:08.044Z,0
2016-02-24T03:01:42.372Z,0
2016-02-24T03:03:13.769Z,0
2016-02-24T03:03:51.972Z,0
2016-02-24T03:04:51.990Z,0
2016-02-24T03:06:04.746Z,0
2016-02-24T03:06:58.310Z,0
2016-02-24T03:08:11.267Z,0
2016-02-24T03:09:04.785Z,0
2016-02-24T03:10:17.757Z,0
2016-02-24T03:11:11.322Z,0
2016-02-24T03:12:23.371Z,0
2016-02-24T03:13:01.577Z,0
2016-02-24T03:14:27.299Z,0
2016-02-24T03:15:08.504Z,0
2016-02-24T03:16:33.555Z,0
2016-02-24T03:17:17.589Z,0
2016-02-24T03:18:17.608Z,0
2016-02-24T03:19:17.578Z,0
2016-02-24T03:20:19.002Z,0
2016-02-24T03:21:18.241Z,0
2016-02-24T03:22:36.836Z,0
2016-02-24T03:23:30.418Z,0
2016-02-24T03:24:43.357Z,0
2016-02-24T03:26:46.503Z,0
2016-02-24T03:27:20.835Z,0
2016-02-24T03:29:18.434Z,0
2016-02-24T03:29:34.027Z,0
2016-02-24T03:30:34.107Z,0
2016-02-24T03:31:46.814Z,0
2016-02-24T03:32:34.301Z,0
2016-02-24T03:33:53.303Z,0
2016-02-24T03:34:40.384Z,0
2016-02-24T03:35:34.106Z,0
2016-02-24T03:36:34.139Z,0
2016-02-24T03:37:34.158Z,0
2016-02-24T03:38:34.536Z,0
2016-02-24T03:39:46.929Z,0
2016-02-24T03:40:40.429Z,0
2016-02-24T03:41:53.358Z,0
2016-02-24T03:42:34.145Z,0
2016-02-24T03:44:05.501Z,0
2016-02-24T03:44:49.344Z,0
2016-02-24T03:46:02.117Z,0
2016-02-24T03:46:49.367Z,0
2016-02-24T03:47:49.396Z,0
2016-02-24T03:48:55.628Z,0
2016-02-24T03:49:57.112Z,0
2016-02-24T03:51:08.595Z,0
2016-02-24T03:51:52.454Z,0
2016-02-24T03:53:15.300Z,0
2016-02-24T03:53:59.208Z,0
2016-02-24T03:54:59.209Z,0
2016-02-24T03:55:59.180Z,0
2016-02-24T03:56:59.199Z,0
2016-02-24T03:57:59.231Z,0
2016-02-24T03:59:05.530Z,0
2016-02-24T03:59:59.251Z,0
2016-02-24T04:00:59.238Z,0
2016-02-24T04:01:59.381Z,0
2016-02-24T04:02:59.274Z,0
2016-02-24T04:03:59.386Z,0
2016-02-24T04:04:59.285Z,0
2016-02-24T04:06:00.756Z,0
2016-02-24T04:06:59.337Z,0
2016-02-24T04:07:59.340Z,0
2016-02-24T04:09:00.780Z,0
2016-02-24T04:09:59.439Z,0
2016-02-24T04:11:12.098Z,0
2016-02-24T04:12:12.116Z,0
2016-02-24T04:13:25.087Z,0
2016-02-24T04:14:18.637Z,0
2016-02-24T04:16:21.845Z,0
2016-02-24T04:16:34.408Z,0
2016-02-24T04:18:37.038Z,0
2016-02-24T04:18:49.694Z,0
2016-02-24T04:19:49.619Z,0
2016-02-24T04:20:49.637Z,0
2016-02-24T04:21:49.672Z,0
2016-02-24T04:22:49.690Z,0
2016-02-24T04:23:49.693Z,0
2016-02-24T04:24:49.805Z,0
2016-02-24T04:26:02.466Z,0
2016-02-24T04:26:49.763Z,0
2016-02-24T04:28:15.425Z,0
2016-02-24T04:28:50.347Z,0
2016-02-24T04:30:21.039Z,0
2016-02-24T04:31:30.621Z,0
2016-02-24T04:32:04.935Z,0
2016-02-24T04:33:05.720Z,0
2016-02-24T04:34:04.957Z,0
2016-02-24T04:36:12.555Z,0
2016-02-24T04:38:06.451Z,0
2016-02-24T04:38:19.233Z,0
2016-02-24T04:39:31.845Z,0
2016-02-24T04:40:25.409Z,0
2016-02-24T04:41:38.381Z,0
2016-02-24T04:42:38.384Z,0
2016-02-24T04:43:50.497Z,0
2016-02-24T04:44:38.468Z,0
2016-02-24T04:47:19.320Z,0
2016-02-24T04:48:28.869Z,0
2016-02-24T04:49:44.544Z,0
2016-02-24T04:54:22.609Z,0
2016-02-24T04:55:03.845Z,0
2016-02-24T04:56:25.691Z,0
2016-02-24T04:58:13.509Z,0
2016-02-24T04:59:16.589Z,0
2016-02-24T05:00:23.186Z,0
2016-02-24T05:00:57.405Z,0
2016-02-24T05:02:28.723Z,0
2016-02-24T05:03:00.569Z,0
2016-02-24T05:06:15.780Z,0
2016-02-24T05:07:15.768Z,0
2016-02-24T05:08:15.786Z,0
2016-02-24T05:09:15.820Z,0
2016-02-24T05:10:15.885Z,0
2016-02-24T05:11:15.826Z,0
2016-02-24T05:12:28.594Z,0
2016-02-24T05:13:16.471Z,0
2016-02-24T05:14:35.099Z,0
2016-02-24T05:15:15.868Z,0
2016-02-24T05:16:15.902Z,0
2016-02-24T05:17:16.107Z,0
2016-02-24T05:18:28.688Z,0
2016-02-24T05:19:16.050Z,0
2016-02-24T05:22:31.871Z,0
2016-02-24T05:23:57.514Z,0
2016-02-24T05:25:03.207Z,0
2016-02-24T05:26:03.178Z,0
2016-02-24T05:26:31.944Z,0
2016-02-24T05:27:38.181Z,0
2016-02-24T05:28:31.981Z,0
2016-02-24T05:29:31.920Z,0
2016-02-24T05:30:31.970Z,0
2016-02-24T05:31:44.707Z,0
2016-02-24T05:32:44.725Z,0
2016-02-24T05:33:57.619Z,0
2016-02-24T05:36:00.908Z,0
2016-02-24T05:36:44.830Z,0
2016-02-24T05:37:45.051Z,0
2016-02-24T05:38:57.617Z,0
2016-02-24T05:39:57.697Z,0
2016-02-24T05:41:10.499Z,0
2016-02-24T05:43:13.849Z,0
2016-02-24T05:44:16.929Z,0
2016-02-24T05:44:57.867Z,0
2016-02-24T05:46:54.732Z,0
2016-02-24T05:47:10.359Z,0
2016-02-24T05:49:16.193Z,0
2016-02-24T05:49:47.990Z,0
2016-02-24T05:51:50.651Z,0
2016-02-24T05:52:28.889Z,4
2016-02-24T05:53:03.251Z,4
2016-02-24T05:55:05.866Z,4
2016-02-24T05:55:18.429Z,4
2016-02-24T05:56:18.447Z,8
2016-02-24T05:57:18.621Z,4
2016-02-24T05:58:24.733Z,8
2016-02-24T05:59:24.705Z,8
2016-02-24T06:00:31.238Z,12
2016-02-24T06:01:18.506Z,12
2016-02-24T06:02:37.696Z,16
2016-02-24T06:03:18.716Z,16
2016-02-24T06:04:44.171Z,20
2016-02-24T06:05:22.408Z,28
2016-02-24T06:07:25.054Z,36
2016-02-24T06:08:03.276Z,40
2016-02-24T06:08:37.667Z,44
2016-02-24T06:10:35.219Z,56
2016-02-24T06:10:47.813Z,60
2016-02-24T06:12:51.037Z,80
2016-02-24T06:13:22.962Z,84
2016-02-24T06:14:03.652Z,92
2016-02-24T06:16:06.892Z,120
2016-02-24T06:16:38.689Z,128
2016-02-24T06:17:19.457Z,140
2016-02-24T06:19:17.056Z,172
2016-02-24T06:19:29.619Z,176
2016-02-24T06:20:42.716Z,216
2016-02-24T06:21:29.655Z,232
2016-02-24T06:22:55.346Z,252
2016-02-24T06:23:29.677Z,268
2016-02-24T06:25:01.007Z,312
2016-02-24T06:25:32.807Z,328
2016-02-24T06:27:04.234Z,368
2016-02-24T06:27:32.812Z,384
2016-02-24T06:29:45.426Z,460
2016-02-24T06:31:13.729Z,512
2016-02-24T06:31:58.120Z,536
2016-02-24T06:34:27.284Z,632
2016-02-24T06:35:01.645Z,656
2016-02-24T06:36:01.634Z,696
2016-02-24T06:37:01.901Z,740
2016-02-24T06:38:01.654Z,804
2016-02-24T06:39:01.687Z,900
2016-02-24T06:40:03.128Z,976
2016-02-24T06:41:07.990Z,1016
2016-02-24T06:42:01.680Z,1032
2016-02-24T06:43:14.496Z,1056
2016-02-24T06:44:14.544Z,1092
2016-02-24T06:45:01.650Z,1128
2016-02-24T06:46:01.762Z,1180
2016-02-24T06:47:06.835Z,1232
2016-02-24T06:48:01.813Z,1280
2016-02-24T06:49:01.785Z,1328
2016-02-24T06:50:14.413Z,1388
2016-02-24T06:51:01.822Z,1424
2016-02-24T06:52:01.840Z,1468
2016-02-24T06:53:01.858Z,1508
2016-02-24T06:54:01.893Z,1548
2016-02-24T06:55:01.880Z,1588
2016-02-24T06:56:01.898Z,1648
2016-02-24T06:57:01.853Z,1740
2016-02-24T06:58:01.888Z,1824
2016-02-24T06:59:01.890Z,1872
2016-02-24T07:00:01.924Z,1932
2016-02-24T07:01:01.943Z,1988
2016-02-24T07:02:01.946Z,2036
2016-02-24T07:03:01.932Z,2104
2016-02-24T07:04:02.169Z,2208
2016-02-24T07:05:01.954Z,2348
2016-02-24T07:06:02.159Z,2496
2016-02-24T07:07:02.286Z,2608
2016-02-24T07:08:02.134Z,2908
2016-02-24T07:09:02.495Z,3440
2016-02-24T07:10:02.174Z,4100
2016-02-24T07:11:02.365Z,4720
2016-02-24T07:12:02.164Z,5000
2016-02-24T07:13:02.933Z,4972
2016-02-24T07:14:02.107Z,5444
2016-02-24T07:15:02.500Z,5112
2016-02-24T07:16:02.160Z,5896
2016-02-24T07:17:02.287Z,6128
2016-02-24T07:18:02.400Z,6276
2016-02-24T07:19:02.261Z,6336
2016-02-24T07:20:02.170Z,6368
2016-02-24T07:21:02.251Z,6632
2016-02-24T07:22:02.207Z,6748
2016-02-24T07:23:02.194Z,6788
2016-02-24T07:24:04.806Z,6804
2016-02-24T07:25:04.605Z,6944
2016-02-24T07:26:02.390Z,7096
2016-02-24T07:27:21.610Z,7176
2016-02-24T07:28:02.880Z,7200
2016-02-24T07:29:02.273Z,6392
2016-02-24T07:30:02.401Z,5012
2016-02-24T07:31:02.325Z,4012
2016-02-24T07:32:02.374Z,3660
2016-02-24T07:33:02.315Z,3300
2016-02-24T07:34:15.145Z,3208
2016-02-24T07:35:02.367Z,3224
2016-02-24T07:36:59.353Z,3272
2016-02-24T07:37:37.622Z,3280
2016-02-24T07:38:11.953Z,3284
2016-02-24T07:39:11.971Z,3312
2016-02-24T07:40:11.989Z,3320
2016-02-24T07:41:12.023Z,3336
2016-02-24T07:42:11.994Z,3344
2016-02-24T07:43:13.435Z,3384
2016-02-24T07:44:12.031Z,3404
2016-02-24T07:45:12.066Z,3440
2016-02-24T07:46:12.818Z,3460
2016-02-24T07:47:12.211Z,3448
2016-02-24T07:48:12.089Z,3468
2016-02-24T07:49:12.108Z,3468
2016-02-24T07:50:12.219Z,3480
2016-02-24T07:51:12.191Z,3500
2016-02-24T07:52:12.225Z,3516
2016-02-24T07:53:12.338Z,3532
2016-02-24T07:54:12.262Z,3528
2016-02-24T07:55:12.421Z,3564
2016-02-24T07:56:12.236Z,3588
2016-02-24T07:57:12.254Z,3600
2016-02-24T07:58:12.194Z,3612
2016-02-24T07:59:12.229Z,3608
2016-02-24T08:00:12.231Z,3600
2016-02-24T08:01:12.265Z,3636
2016-02-24T08:02:12.439Z,3644
2016-02-24T08:03:12.287Z,3660
2016-02-24T08:04:12.304Z,3684
2016-02-24T08:05:25.197Z,3696
2016-02-24T08:06:12.498Z,3704
2016-02-24T08:08:09.550Z,3736
2016-02-24T08:08:47.800Z,3756
2016-02-24T08:09:22.098Z,3788
2016-02-24T08:10:22.320Z,3828
2016-02-24T08:11:22.308Z,3876
2016-02-24T08:12:22.279Z,3980
2016-02-24T08:13:22.281Z,4364
2016-02-24T08:14:22.316Z,4016
2016-02-24T08:15:22.568Z,3916
2016-02-24T08:16:22.274Z,3876
2016-02-24T08:17:22.463Z,3856
2016-02-24T08:18:22.279Z,3844
2016-02-24T08:19:22.469Z,3844
2016-02-24T08:20:22.363Z,3840
2016-02-24T08:21:35.052Z,3824
2016-02-24T08:22:22.305Z,3816
2016-02-24T08:23:22.543Z,3804
2016-02-24T08:24:22.343Z,3824
2016-02-24T08:25:22.423Z,3836
2016-02-24T08:26:22.394Z,3812
2016-02-24T08:27:22.429Z,3816
2016-02-24T08:28:22.415Z,3824
2016-02-24T08:29:22.466Z,3844
2016-02-24T08:30:22.421Z,3856
2016-02-24T08:31:22.423Z,3884
2016-02-24T08:32:23.051Z,3888
2016-02-24T08:33:22.460Z,3908
2016-02-24T08:34:22.573Z,3900
2016-02-24T08:35:23.106Z,3916
2016-02-24T08:36:22.593Z,3936
2016-02-24T08:37:22.534Z,3940
2016-02-24T08:38:22.614Z,3948
2016-02-24T08:39:22.539Z,3936
2016-02-24T08:40:22.636Z,3924
2016-02-24T08:41:22.575Z,3952
2016-02-24T08:42:22.594Z,3920
2016-02-24T08:43:22.597Z,3916
2016-02-24T08:44:22.599Z,3888
2016-02-24T08:45:22.649Z,3904
2016-02-24T08:46:22.667Z,3896
2016-02-24T08:47:28.936Z,3896
2016-02-24T08:48:22.672Z,3912
2016-02-24T08:49:22.816Z,3920
2016-02-24T08:50:22.694Z,3944
2016-02-24T08:51:22.790Z,3956
2016-02-24T08:52:22.761Z,3944
2016-02-24T08:53:22.592Z,3944
2016-02-24T08:54:29.048Z,3952
2016-02-24T08:55:22.785Z,3956
2016-02-24T08:56:22.788Z,3964
2016-02-24T08:57:22.791Z,3984
2016-02-24T08:58:22.824Z,3992
2016-02-24T08:59:22.812Z,4000
2016-02-24T09:00:22.846Z,4000
2016-02-24T09:01:22.863Z,3984
2016-02-24T09:02:22.898Z,3968
2016-02-24T09:03:22.901Z,3992
2016-02-24T09:04:22.903Z,3992
2016-02-24T09:05:22.906Z,4020
2016-02-24T09:06:22.987Z,4064
2016-02-24T09:07:22.942Z,4080
2016-02-24T09:08:22.976Z,4088
2016-02-24T09:09:22.964Z,4072
2016-02-24T09:10:35.076Z,4088
2016-02-24T09:11:22.984Z,4124
2016-02-24T09:12:23.034Z,4112
2016-02-24T09:13:23.053Z,4148
2016-02-24T09:14:23.039Z,4208
2016-02-24T09:15:23.150Z,4288
2016-02-24T09:16:23.076Z,4420
2016-02-24T09:17:35.938Z,4356
2016-02-24T09:18:23.097Z,4624
2016-02-24T09:19:42.397Z,5124
2016-02-24T09:20:29.446Z,4644
2016-02-24T09:21:23.167Z,4696
2016-02-24T09:22:23.186Z,4748
2016-02-24T09:23:29.547Z,4808
2016-02-24T09:24:23.144Z,4884
2016-02-24T09:25:35.912Z,4848
2016-02-24T09:26:23.260Z,4948
2016-02-24T09:27:35.949Z,4716
2016-02-24T09:28:23.249Z,4532
2016-02-24T09:29:23.268Z,4464
2016-02-24T09:30:23.395Z,4348
2016-02-24T09:31:23.288Z,5176
2016-02-24T09:32:23.322Z,5612
2016-02-24T09:33:23.324Z,6020
2016-02-24T09:34:23.420Z,5568
2016-02-24T09:35:23.329Z,5168
2016-02-24T09:36:23.379Z,4736
2016-02-24T09:37:23.382Z,4576
2016-02-24T09:38:23.401Z,4408
2016-02-24T09:39:23.387Z,4304
2016-02-24T09:40:23.406Z,4264
2016-02-24T09:41:23.455Z,4272
2016-02-24T09:42:23.693Z,4276
2016-02-24T09:43:36.242Z,4276
2016-02-24T09:44:23.463Z,4280
2016-02-24T09:45:36.248Z,4340
2016-02-24T09:46:23.531Z,4308
2016-02-24T09:47:23.581Z,4336
2016-02-24T09:48:23.537Z,4352
2016-02-24T09:49:23.633Z,4316
2016-02-24T09:50:23.574Z,4356
2016-02-24T09:51:23.592Z,4388
2016-02-24T09:52:24.204Z,4408
2016-02-24T09:53:36.332Z,4424
2016-02-24T09:54:23.678Z,4516
2016-02-24T09:55:23.697Z,4500
2016-02-24T09:56:23.668Z,4488
2016-02-24T09:57:23.686Z,4432
2016-02-24T09:58:23.705Z,4484
2016-02-24T09:59:23.707Z,4540
2016-02-24T10:00:23.741Z,4620
2016-02-24T10:01:36.478Z,4764
2016-02-24T10:02:23.840Z,4844
2016-02-24T10:03:49.436Z,5176
2016-02-24T10:04:23.846Z,5308
2016-02-24T10:05:23.801Z,5744
2016-02-24T10:06:23.835Z,5904
2016-02-24T10:07:23.838Z,5800
2016-02-24T10:08:23.825Z,5456
2016-02-24T10:09:23.859Z,5208
2016-02-24T10:10:23.878Z,5052
2016-02-24T10:11:24.020Z,5108
2016-02-24T10:12:23.914Z,5072
2016-02-24T10:13:23.964Z,4848
2016-02-24T10:14:30.201Z,4656
2016-02-24T10:15:23.953Z,4656
2016-02-24T10:16:23.972Z,4832
2016-02-24T10:17:24.022Z,5008
2016-02-24T10:18:23.992Z,5172
2016-02-24T10:19:30.370Z,5088
2016-02-24T10:20:24.030Z,5496
2016-02-24T10:21:24.047Z,5744
2016-02-24T10:22:24.097Z,5220
2016-02-24T10:23:24.084Z,5984
2016-02-24T10:24:24.118Z,7916
2016-02-24T10:25:24.105Z,8828
2016-02-24T10:26:24.124Z,9284
2016-02-24T10:27:24.157Z,9928
2016-02-24T10:28:24.160Z,10424
2016-02-24T10:29:24.163Z,10824
2016-02-24T10:30:24.181Z,10388
2016-02-24T10:31:24.215Z,10604
2016-02-24T10:32:24.233Z,9932
2016-02-24T10:33:30.564Z,9676
2016-02-24T10:34:24.380Z,10820
2016-02-24T10:35:43.476Z,10376
2016-02-24T10:36:27.276Z,10048
2016-02-24T10:37:24.340Z,9008
2016-02-24T10:38:24.312Z,8472
2016-02-24T10:39:24.346Z,8472
2016-02-24T10:40:24.364Z,9504
2016-02-24T10:41:24.398Z,9724
2016-02-24T10:42:24.417Z,8448
2016-02-24T10:43:24.450Z,8112
2016-02-24T10:44:24.438Z,6892
2016-02-24T10:45:24.440Z,7428
2016-02-24T10:46:25.927Z,9464
2016-02-24T10:47:24.508Z,9880
2016-02-24T10:48:24.495Z,10000
2016-02-24T10:49:24.544Z,9008
2016-02-24T10:50:37.281Z,10964
2016-02-24T10:51:37.300Z,10628
2016-02-24T10:52:24.584Z,10432
2016-02-24T10:53:24.572Z,9792
2016-02-24T10:54:24.621Z,8984
2016-02-24T10:55:24.998Z,7756
2016-02-24T10:56:24.642Z,7740
2016-02-24T10:57:37.394Z,9084
2016-02-24T10:58:24.693Z,10080
2016-02-24T10:59:43.900Z,9160
2016-02-24T11:00:24.746Z,9424
2016-02-24T11:01:50.530Z,9432
2016-02-24T11:02:24.768Z,8948
2016-02-24T11:04:27.382Z,9456
2016-02-24T11:05:05.635Z,9300
2016-02-24T11:05:39.979Z,9512
2016-02-24T11:06:39.996Z,10292
2016-02-24T11:07:39.999Z,9384
2016-02-24T11:08:40.126Z,9648
2016-02-24T11:09:40.020Z,10548
2016-02-24T11:10:40.117Z,9552
2016-02-24T11:11:52.792Z,10544
2016-02-24T11:12:40.091Z,11264
2016-02-24T11:13:40.094Z,10844
2016-02-24T11:14:40.143Z,10164
2016-02-24T11:15:46.381Z,11152
2016-02-24T11:16:40.165Z,11336
2016-02-24T11:17:40.354Z,9968
2016-02-24T11:18:40.200Z,9376
2016-02-24T11:19:40.314Z,9936
2016-02-24T11:20:40.222Z,10504
2016-02-24T11:21:40.286Z,8832
2016-02-24T11:22:40.259Z,7800
2016-02-24T11:23:40.292Z,7020
2016-02-24T11:24:40.311Z,6360
2016-02-24T11:25:40.329Z,7236
2016-02-24T11:26:53.082Z,7836
2016-02-24T11:27:46.616Z,8124
2016-02-24T11:28:40.384Z,9140
2016-02-24T11:29:40.402Z,12260
2016-02-24T11:30:40.420Z,13460
2016-02-24T11:31:40.439Z,11716
2016-02-24T11:32:53.207Z,8720
2016-02-24T11:33:46.865Z,6632
2016-02-24T11:34:59.729Z,5444
2016-02-24T11:35:40.527Z,5372
2016-02-24T11:36:40.562Z,5332
2016-02-24T11:37:53.283Z,5072
2016-02-24T11:38:48.270Z,4468
2016-02-24T11:39:40.601Z,3700
2016-02-24T11:41:06.278Z,3132
2016-02-24T11:41:40.622Z,3404
2016-02-24T11:43:43.253Z,5216
2016-02-24T11:44:15.098Z,5368
2016-02-24T11:44:55.848Z,5532
2016-02-24T11:45:55.867Z,5704
2016-02-24T11:46:55.870Z,5400
2016-02-24T11:48:08.642Z,5104
2016-02-24T11:48:55.923Z,5172
2016-02-24T11:50:15.317Z,4892
2016-02-24T11:51:24.852Z,4636
2016-02-24T11:52:18.417Z,5452
2016-02-24T11:54:27.172Z,6624
2016-02-24T11:58:02.541Z,9124
2016-02-24T11:59:18.341Z,8852
2016-02-24T12:01:21.644Z,8656
2016-02-24T12:02:46.491Z,8128
2016-02-24T12:04:01.682Z,8944
2016-02-24T12:04:36.699Z,9536
2016-02-24T12:05:30.407Z,10252
2016-02-24T12:06:43.159Z,10976
2016-02-24T12:07:30.444Z,10468
2016-02-24T12:09:21.637Z,9760
2016-02-24T12:09:34.200Z,10512
2016-02-24T12:11:31.205Z,10904
2016-02-24T12:11:43.783Z,10660
2016-02-24T12:13:40.772Z,8532
2016-02-24T12:13:53.319Z,8308
2016-02-24T12:15:50.325Z,6660
2016-02-24T12:16:02.966Z,6584
2016-02-24T12:17:02.921Z,6704
2016-02-24T12:18:02.939Z,6968
2016-02-24T12:19:15.711Z,7108
2016-02-24T12:20:02.977Z,6916
2016-02-24T12:21:22.216Z,6156
2016-02-24T12:22:03.638Z,5776
2016-02-24T12:24:00.065Z,5044
2016-02-24T12:27:03.213Z,5184
2016-02-24T12:27:37.576Z,4956
2016-02-24T12:29:35.315Z,5388
2016-02-24T12:29:47.924Z,5420
2016-02-24T12:31:57.493Z,5288
2016-02-24T12:32:57.495Z,5596
2016-02-24T12:34:10.266Z,6428
2016-02-24T12:34:57.562Z,6620
2016-02-24T12:36:23.225Z,6932
2016-02-24T12:36:57.553Z,7048
2016-02-24T12:38:30.277Z,7328
2016-02-24T12:39:02.058Z,7424
2016-02-24T12:40:33.423Z,7872
2016-02-24T12:41:08.363Z,8228
2016-02-24T12:43:43.009Z,10192
2016-02-24T12:44:17.340Z,10536
2016-02-24T12:46:15.812Z,11992
2016-02-24T12:46:28.437Z,12156
2016-02-24T12:48:18.922Z,12228
2016-02-24T12:48:34.719Z,11656
2016-02-24T12:50:03.102Z,9648
2016-02-24T12:50:44.438Z,8072
2016-02-24T12:52:44.446Z,4564
2016-02-24T12:53:31.773Z,4428
2016-02-24T12:57:41.334Z,7736
2016-02-24T13:08:09.889Z,4448
2016-02-24T13:11:47.739Z,4132
2016-02-24T13:12:22.101Z,4028
2016-02-24T13:15:08.594Z,4028
2016-02-24T13:15:37.376Z,4136
2016-02-24T13:16:37.347Z,4168
2016-02-24T13:17:37.396Z,4136
2016-02-24T13:18:50.102Z,3936
2016-02-24T13:19:37.401Z,3832
2016-02-24T13:20:56.607Z,3596
2016-02-24T13:21:37.642Z,3452
2016-02-24T13:22:56.644Z,3568
2016-02-24T13:23:37.912Z,3728
2016-02-24T13:25:02.945Z,3924
2016-02-24T13:25:43.762Z,4016
2016-02-24T13:27:35.110Z,3996
2016-02-24T13:27:53.922Z,4632
2016-02-24T13:29:06.754Z,6664
2016-02-24T13:30:06.694Z,7144
2016-02-24T13:31:13.340Z,6584
2016-02-24T13:31:53.997Z,5864
2016-02-24T13:33:19.877Z,4584
2016-02-24T13:33:54.049Z,4316
2016-02-24T13:35:25.350Z,3864
2016-02-24T13:36:03.632Z,3800
2016-02-24T13:37:03.697Z,3808
2016-02-24T13:38:16.406Z,3812
2016-02-24T13:39:03.688Z,3768
2016-02-24T13:41:32.430Z,3724
2016-02-24T13:42:06.789Z,3968
2016-02-24T13:44:09.421Z,4156
2016-02-24T13:44:41.187Z,4152
2016-02-24T13:45:22.082Z,4144
2016-02-24T13:46:47.693Z,4156
2016-02-24T13:47:34.789Z,4156
2016-02-24T13:49:43.513Z,4132
2016-02-24T13:50:56.531Z,3732
2016-02-24T13:51:50.004Z,3668
2016-02-24T13:53:02.975Z,3760
2016-02-24T13:55:49.671Z,4420
2016-02-24T13:56:49.736Z,4492
2016-02-24T13:58:02.456Z,4536
2016-02-24T13:58:49.944Z,4516
2016-02-24T14:00:08.964Z,4432
2016-02-24T14:00:49.792Z,4384
2016-02-24T14:02:21.080Z,4344
2016-02-24T14:03:05.642Z,4328
2016-02-24T14:05:02.608Z,4132
2016-02-24T14:05:15.173Z,4092
2016-02-24T14:07:13.584Z,3772
2016-02-24T14:07:26.162Z,3756
2016-02-24T14:09:28.793Z,4008
2016-02-24T14:10:00.559Z,3976
2016-02-24T14:10:41.483Z,4012
2016-02-24T14:12:07.064Z,3976
2016-02-24T14:12:41.456Z,3956
2016-02-24T14:13:41.428Z,3924
2016-02-24T14:14:41.885Z,3908
2016-02-24T14:15:41.465Z,3912
2016-02-24T14:16:41.483Z,3924
2016-02-24T14:17:41.517Z,3952
2016-02-24T14:18:41.488Z,3984
2016-02-24T14:19:41.523Z,4040
2016-02-24T14:20:41.525Z,4116
2016-02-24T14:21:47.856Z,4236
2016-02-24T14:22:48.047Z,4356
2016-02-24T14:23:54.518Z,4528
2016-02-24T14:25:00.802Z,4712
2016-02-24T14:26:00.852Z,4868
2016-02-24T14:27:44.263Z,5052
2016-02-24T14:28:09.578Z,5088
2016-02-24T14:28:56.875Z,5116
2016-02-24T14:30:22.646Z,5024
2016-02-24T14:31:03.943Z,4908
2016-02-24T14:32:32.293Z,4580
2016-02-24T14:33:10.357Z,4424
2016-02-24T14:35:06.735Z,4028
2016-02-24T14:35:20.378Z,3988
2016-02-24T14:36:20.538Z,3888
2016-02-24T14:37:20.806Z,3736
2016-02-24T14:38:33.293Z,3692
2016-02-24T14:39:20.608Z,3756
2016-02-24T14:41:55.831Z,4272
2016-02-24T14:42:30.179Z,4416
2016-02-24T14:43:30.181Z,4700
2016-02-24T14:44:42.934Z,4976
2016-02-24T14:45:42.952Z,5212
2016-02-24T14:46:49.455Z,5472
2016-02-24T14:49:55.963Z,5264
2016-02-24T14:51:11.140Z,4468
2016-02-24T14:51:49.375Z,4120
2016-02-24T14:52:23.564Z,3824
2016-02-24T14:55:04.602Z,3084
2016-02-24T14:55:39.010Z,2820
2016-02-24T14:57:41.672Z,2476
2016-02-24T14:58:19.988Z,2924
2016-02-24T14:58:54.253Z,3444
2016-02-24T15:00:58.304Z,4504
2016-02-24T15:01:36.589Z,4524
2016-02-24T15:02:10.888Z,4508
2016-02-24T15:05:02.284Z,3900
2016-02-24T15:05:14.632Z,3296
2016-02-24T15:07:17.175Z,4404
2016-02-24T15:07:48.940Z,4492
2016-02-24T15:08:29.755Z,4756
2016-02-24T15:09:29.789Z,4684
2016-02-24T15:10:42.526Z,4248
2016-02-24T15:11:30.200Z,3928
2016-02-24T15:12:49.078Z,3560
2016-02-24T15:13:29.878Z,3444
2016-02-24T15:14:55.536Z,3348
2016-02-24T15:15:29.930Z,3332
2016-02-24T15:17:32.482Z,3356
2016-02-24T15:18:04.123Z,3360
2016-02-24T15:18:45.110Z,3264
2016-02-24T15:19:46.550Z,3324
2016-02-24T15:20:51.349Z,3520
2016-02-24T15:21:48.149Z,3580
2016-02-24T15:22:57.870Z,3588
2016-02-24T15:23:45.155Z,3544